sensor_id;sensor_type;location;lat;lon;timestamp;P1;P2;P0
42510;PMS7003;28141;51.120;17.114;2023-04-23T00:01:12;28;21;14
42510;PMS7003;28141;51.120;17.114;2023-04-23T00:04:29;31;21;16
42510;PMS7003;28141;51.120;17.114;2023-04-23T00:08:13;29;21;14
42510;PMS7003;28141;51.120;17.114;2023-04-23T00:11:30;30;21;15
42510;PMS7003;28141;51.120;17.114;2023-04-23T00:14:44;31;23;16
42510;PMS7003;28141;51.120;17.114;2023-04-23T00:17:58;28;20;15
42510;PMS7003;28141;51.120;17.114;2023-04-23T00:21:37;29;20;14
42510;PMS7003;28141;51.120;17.114;2023-04-23T00:24:51;29;21;15
42510;PMS7003;28141;51.120;17.114;2023-04-23T00:28:05;30;20;15
42510;PMS7003;28141;51.120;17.114;2023-04-23T00:31:19;29;20;14
42510;PMS7003;28141;51.120;17.114;2023-04-23T00:35:00;30;21;15
42510;PMS7003;28141;51.120;17.114;2023-04-23T00:38:14;30;21;14
42510;PMS7003;28141;51.120;17.114;2023-04-23T00:41:28;30;21;15
42510;PMS7003;28141;51.120;17.114;2023-04-23T00:44:42;30;22;14
42510;PMS7003;28141;51.120;17.114;2023-04-23T00:48:20;29;20;14
42510;PMS7003;28141;51.120;17.114;2023-04-23T00:51:34;31;21;15
42510;PMS7003;28141;51.120;17.114;2023-04-23T00:54:48;31;22;15
42510;PMS7003;28141;51.120;17.114;2023-04-23T00:58:02;32;23;16
42510;PMS7003;28141;51.120;17.114;2023-04-23T01:01:43;30;21;15
42510;PMS7003;28141;51.120;17.114;2023-04-23T01:04:58;31;23;15
42510;PMS7003;28141;51.120;17.114;2023-04-23T01:08:17;31;21;15
42510;PMS7003;28141;51.120;17.114;2023-04-23T01:11:31;33;23;15
42510;PMS7003;28141;51.120;17.114;2023-04-23T01:15:17;29;20;14
42510;PMS7003;28141;51.120;17.114;2023-04-23T01:18:31;31;22;14
42510;PMS7003;28141;51.120;17.114;2023-04-23T01:21:46;29;20;15
42510;PMS7003;28141;51.120;17.114;2023-04-23T01:25:03;33;21;16
42510;PMS7003;28141;51.120;17.114;2023-04-23T01:28:44;27;19;12
42510;PMS7003;28141;51.120;17.114;2023-04-23T01:31:59;27;21;14
42510;PMS7003;28141;51.120;17.114;2023-04-23T01:35:14;28;20;14
42510;PMS7003;28141;51.120;17.114;2023-04-23T01:38:29;30;22;16
42510;PMS7003;28141;51.120;17.114;2023-04-23T01:42:10;32;21;14
42510;PMS7003;28141;51.120;17.114;2023-04-23T01:45:24;33;22;16
42510;PMS7003;28141;51.120;17.114;2023-04-23T01:48:38;32;25;16
42510;PMS7003;28141;51.120;17.114;2023-04-23T01:51:52;32;23;16
42510;PMS7003;28141;51.120;17.114;2023-04-23T01:55:07;33;24;16
42510;PMS7003;28141;51.120;17.114;2023-04-23T01:58:46;33;23;15
42510;PMS7003;28141;51.120;17.114;2023-04-23T02:01:59;30;20;14
42510;PMS7003;28141;51.120;17.114;2023-04-23T02:05:14;33;23;16
42510;PMS7003;28141;51.120;17.114;2023-04-23T02:08:30;36;24;16
42510;PMS7003;28141;51.120;17.114;2023-04-23T02:12:09;28;20;14
42510;PMS7003;28141;51.120;17.114;2023-04-23T02:15:23;31;21;14
42510;PMS7003;28141;51.120;17.114;2023-04-23T02:18:37;34;23;15
42510;PMS7003;28141;51.120;17.114;2023-04-23T02:21:51;33;23;16
42510;PMS7003;28141;51.120;17.114;2023-04-23T02:25:29;31;23;16
42510;PMS7003;28141;51.120;17.114;2023-04-23T02:28:45;30;23;14
42510;PMS7003;28141;51.120;17.114;2023-04-23T02:31:59;33;23;16
42510;PMS7003;28141;51.120;17.114;2023-04-23T02:35:13;31;20;15
42510;PMS7003;28141;51.120;17.114;2023-04-23T02:38:52;33;24;16
42510;PMS7003;28141;51.120;17.114;2023-04-23T02:42:05;32;22;15
42510;PMS7003;28141;51.120;17.114;2023-04-23T02:45:20;32;22;15
42510;PMS7003;28141;51.120;17.114;2023-04-23T02:48:37;37;26;17
42510;PMS7003;28141;51.120;17.114;2023-04-23T02:52:17;31;22;16
42510;PMS7003;28141;51.120;17.114;2023-04-23T02:55:31;33;22;16
42510;PMS7003;28141;51.120;17.114;2023-04-23T02:58:45;30;21;15
42510;PMS7003;28141;51.120;17.114;2023-04-23T03:01:59;33;22;16
42510;PMS7003;28141;51.120;17.114;2023-04-23T03:05:39;30;21;15
42510;PMS7003;28141;51.120;17.114;2023-04-23T03:08:53;30;21;14
42510;PMS7003;28141;51.120;17.114;2023-04-23T03:12:06;34;24;15
42510;PMS7003;28141;51.120;17.114;2023-04-23T03:15:20;33;21;14
42510;PMS7003;28141;51.120;17.114;2023-04-23T03:18:59;28;20;14
42510;PMS7003;28141;51.120;17.114;2023-04-23T03:22:13;33;23;15
42510;PMS7003;28141;51.120;17.114;2023-04-23T03:25:27;33;23;16
42510;PMS7003;28141;51.120;17.114;2023-04-23T03:28:41;31;24;15
42510;PMS7003;28141;51.120;17.114;2023-04-23T03:32:20;31;23;16
42510;PMS7003;28141;51.120;17.114;2023-04-23T03:35:33;33;23;16
42510;PMS7003;28141;51.120;17.114;2023-04-23T03:38:48;28;20;14
42510;PMS7003;28141;51.120;17.114;2023-04-23T03:42:02;33;23;16
42510;PMS7003;28141;51.120;17.114;2023-04-23T03:45:43;31;23;14
42510;PMS7003;28141;51.120;17.114;2023-04-23T03:48:57;28;21;15
42510;PMS7003;28141;51.120;17.114;2023-04-23T03:52:11;34;24;16
42510;PMS7003;28141;51.120;17.114;2023-04-23T03:55:25;29;21;16
42510;PMS7003;28141;51.120;17.114;2023-04-23T03:59:03;30;22;16
42510;PMS7003;28141;51.120;17.114;2023-04-23T04:02:18;30;22;16
42510;PMS7003;28141;51.120;17.114;2023-04-23T04:05:32;34;20;15
42510;PMS7003;28141;51.120;17.114;2023-04-23T04:08:46;29;21;15
42510;PMS7003;28141;51.120;17.114;2023-04-23T04:12:25;34;25;15
42510;PMS7003;28141;51.120;17.114;2023-04-23T04:15:39;34;22;15
42510;PMS7003;28141;51.120;17.114;2023-04-23T04:18:53;30;22;16
42510;PMS7003;28141;51.120;17.114;2023-04-23T04:22:08;33;23;16
42510;PMS7003;28141;51.120;17.114;2023-04-23T04:25:46;29;20;14
42510;PMS7003;28141;51.120;17.114;2023-04-23T04:29:03;30;22;16
42510;PMS7003;28141;51.120;17.114;2023-04-23T04:32:17;30;21;15
42510;PMS7003;28141;51.120;17.114;2023-04-23T04:35:31;32;20;15
42510;PMS7003;28141;51.120;17.114;2023-04-23T04:39:10;30;19;14
42510;PMS7003;28141;51.120;17.114;2023-04-23T04:42:26;29;20;14
42510;PMS7003;28141;51.120;17.114;2023-04-23T04:45:40;30;22;15
42510;PMS7003;28141;51.120;17.114;2023-04-23T04:48:54;30;22;16
42510;PMS7003;28141;51.120;17.114;2023-04-23T04:52:33;30;22;16
42510;PMS7003;28141;51.120;17.114;2023-04-23T04:55:48;31;22;15
42510;PMS7003;28141;51.120;17.114;2023-04-23T04:59:02;32;22;15
42510;PMS7003;28141;51.120;17.114;2023-04-23T05:02:16;30;21;15
42510;PMS7003;28141;51.120;17.114;2023-04-23T05:05:54;29;21;16
42510;PMS7003;28141;51.120;17.114;2023-04-23T05:09:11;28;21;15
42510;PMS7003;28141;51.120;17.114;2023-04-23T05:12:25;28;17;13
42510;PMS7003;28141;51.120;17.114;2023-04-23T05:15:38;30;21;14
42510;PMS7003;28141;51.120;17.114;2023-04-23T05:19:17;26;18;14
42510;PMS7003;28141;51.120;17.114;2023-04-23T05:22:31;28;20;12
42510;PMS7003;28141;51.120;17.114;2023-04-23T05:25:45;27;18;13
42510;PMS7003;28141;51.120;17.114;2023-04-23T05:28:59;30;19;14
42510;PMS7003;28141;51.120;17.114;2023-04-23T05:32:38;33;21;14
42510;PMS7003;28141;51.120;17.114;2023-04-23T05:35:52;27;20;13
42510;PMS7003;28141;51.120;17.114;2023-04-23T05:39:07;32;22;15
42510;PMS7003;28141;51.120;17.114;2023-04-23T05:42:21;30;21;13
42510;PMS7003;28141;51.120;17.114;2023-04-23T05:46:00;28;19;13
42510;PMS7003;28141;51.120;17.114;2023-04-23T05:49:18;33;20;14
42510;PMS7003;28141;51.120;17.114;2023-04-23T05:52:32;27;20;13
42510;PMS7003;28141;51.120;17.114;2023-04-23T05:56:16;26;18;13
42510;PMS7003;28141;51.120;17.114;2023-04-23T05:59:30;30;20;14
42510;PMS7003;28141;51.120;17.114;2023-04-23T06:02:45;26;17;13
42510;PMS7003;28141;51.120;17.114;2023-04-23T06:06:00;29;20;14
42510;PMS7003;28141;51.120;17.114;2023-04-23T06:09:39;26;18;13
42510;PMS7003;28141;51.120;17.114;2023-04-23T06:12:53;28;19;13
42510;PMS7003;28141;51.120;17.114;2023-04-23T06:16:07;29;18;12
42510;PMS7003;28141;51.120;17.114;2023-04-23T06:19:22;26;17;13
42510;PMS7003;28141;51.120;17.114;2023-04-23T06:23:04;24;16;12
42510;PMS7003;28141;51.120;17.114;2023-04-23T06:26:19;27;18;13
42510;PMS7003;28141;51.120;17.114;2023-04-23T06:29:33;28;19;12
42510;PMS7003;28141;51.120;17.114;2023-04-23T06:32:47;27;17;12
42510;PMS7003;28141;51.120;17.114;2023-04-23T06:36:25;26;18;12
42510;PMS7003;28141;51.120;17.114;2023-04-23T06:39:39;28;18;12
42510;PMS7003;28141;51.120;17.114;2023-04-23T06:42:53;29;21;13
42510;PMS7003;28141;51.120;17.114;2023-04-23T06:46:08;23;15;12
42510;PMS7003;28141;51.120;17.114;2023-04-23T06:49:46;25;16;12
42510;PMS7003;28141;51.120;17.114;2023-04-23T06:53:00;24;15;12
42510;PMS7003;28141;51.120;17.114;2023-04-23T06:56:14;26;18;12
42510;PMS7003;28141;51.120;17.114;2023-04-23T06:59:27;26;17;10
42510;PMS7003;28141;51.120;17.114;2023-04-23T07:03:06;27;18;12
42510;PMS7003;28141;51.120;17.114;2023-04-23T07:06:20;25;16;11
42510;PMS7003;28141;51.120;17.114;2023-04-23T07:09:34;28;17;12
42510;PMS7003;28141;51.120;17.114;2023-04-23T07:12:48;26;15;11
42510;PMS7003;28141;51.120;17.114;2023-04-23T07:16:27;24;16;13
42510;PMS7003;28141;51.120;17.114;2023-04-23T07:19:45;22;14;11
42510;PMS7003;28141;51.120;17.114;2023-04-23T07:23:00;24;16;11
42510;PMS7003;28141;51.120;17.114;2023-04-23T07:26:16;27;16;10
42510;PMS7003;28141;51.120;17.114;2023-04-23T07:29:55;25;17;13
42510;PMS7003;28141;51.120;17.114;2023-04-23T07:33:09;23;16;11
42510;PMS7003;28141;51.120;17.114;2023-04-23T07:36:23;25;18;10
42510;PMS7003;28141;51.120;17.114;2023-04-23T07:39:37;22;15;11
42510;PMS7003;28141;51.120;17.114;2023-04-23T07:43:18;24;16;11
42510;PMS7003;28141;51.120;17.114;2023-04-23T07:46:31;24;16;11
42510;PMS7003;28141;51.120;17.114;2023-04-23T07:49:45;23;16;11
42510;PMS7003;28141;51.120;17.114;2023-04-23T07:52:59;23;14;10
42510;PMS7003;28141;51.120;17.114;2023-04-23T07:56:39;24;14;10
42510;PMS7003;28141;51.120;17.114;2023-04-23T07:59:53;22;15;11
42510;PMS7003;28141;51.120;17.114;2023-04-23T08:03:07;25;15;12
42510;PMS7003;28141;51.120;17.114;2023-04-23T08:06:21;23;15;10
42510;PMS7003;28141;51.120;17.114;2023-04-23T08:10:02;23;15;10
42510;PMS7003;28141;51.120;17.114;2023-04-23T08:13:19;21;13;9
42510;PMS7003;28141;51.120;17.114;2023-04-23T08:16:33;24;15;10
42510;PMS7003;28141;51.120;17.114;2023-04-23T08:19:47;26;17;11
42510;PMS7003;28141;51.120;17.114;2023-04-23T08:23:27;24;16;12
42510;PMS7003;28141;51.120;17.114;2023-04-23T08:26:41;22;15;10
42510;PMS7003;28141;51.120;17.114;2023-04-23T08:29:55;21;14;10
42510;PMS7003;28141;51.120;17.114;2023-04-23T08:33:09;22;14;10
42510;PMS7003;28141;51.120;17.114;2023-04-23T08:36:49;29;14;10
42510;PMS7003;28141;51.120;17.114;2023-04-23T08:40:03;21;14;9
42510;PMS7003;28141;51.120;17.114;2023-04-23T08:43:19;22;14;10
42510;PMS7003;28141;51.120;17.114;2023-04-23T08:46:33;24;15;11
42510;PMS7003;28141;51.120;17.114;2023-04-23T08:50:18;21;14;10
42510;PMS7003;28141;51.120;17.114;2023-04-23T08:53:32;22;14;10
42510;PMS7003;28141;51.120;17.114;2023-04-23T08:56:46;23;15;10
42510;PMS7003;28141;51.120;17.114;2023-04-23T09:00:04;23;16;9
42510;PMS7003;28141;51.120;17.114;2023-04-23T09:03:46;20;14;9
42510;PMS7003;28141;51.120;17.114;2023-04-23T09:07:00;23;13;10
42510;PMS7003;28141;51.120;17.114;2023-04-23T09:10:16;22;14;9
42510;PMS7003;28141;51.120;17.114;2023-04-23T09:13:30;21;13;9
42510;PMS7003;28141;51.120;17.114;2023-04-23T09:17:12;21;13;9
42510;PMS7003;28141;51.120;17.114;2023-04-23T09:20:26;21;13;10
42510;PMS7003;28141;51.120;17.114;2023-04-23T09:23:40;19;12;8
42510;PMS7003;28141;51.120;17.114;2023-04-23T09:26:56;22;14;10
42510;PMS7003;28141;51.120;17.114;2023-04-23T09:30:11;20;13;9
42510;PMS7003;28141;51.120;17.114;2023-04-23T09:33:27;19;11;9
42510;PMS7003;28141;51.120;17.114;2023-04-23T09:37:07;22;13;9
42510;PMS7003;28141;51.120;17.114;2023-04-23T09:40:24;21;13;8
42510;PMS7003;28141;51.120;17.114;2023-04-23T09:43:40;20;14;9
42510;PMS7003;28141;51.120;17.114;2023-04-23T09:46:54;22;13;9
42510;PMS7003;28141;51.120;17.114;2023-04-23T09:50:35;20;14;9
42510;PMS7003;28141;51.120;17.114;2023-04-23T09:53:51;18;11;8
42510;PMS7003;28141;51.120;17.114;2023-04-23T09:57:05;21;12;9
42510;PMS7003;28141;51.120;17.114;2023-04-23T10:00:21;21;13;10
42510;PMS7003;28141;51.120;17.114;2023-04-23T10:04:10;19;11;8
42510;PMS7003;28141;51.120;17.114;2023-04-23T10:07:25;21;14;9
42510;PMS7003;28141;51.120;17.114;2023-04-23T10:10:39;20;13;8
42510;PMS7003;28141;51.120;17.114;2023-04-23T10:13:53;22;14;9
42510;PMS7003;28141;51.120;17.114;2023-04-23T10:17:34;19;12;9
42510;PMS7003;28141;51.120;17.114;2023-04-23T10:21:19;20;12;8
42510;PMS7003;28141;51.120;17.114;2023-04-23T10:24:40;19;12;8
42510;PMS7003;28141;51.120;17.114;2023-04-23T10:27:58;20;13;8
42510;PMS7003;28141;51.120;17.114;2023-04-23T10:31:43;19;11;8
42510;PMS7003;28141;51.120;17.114;2023-04-23T10:34:59;21;13;9
42510;PMS7003;28141;51.120;17.114;2023-04-23T10:38:13;20;12;8
42510;PMS7003;28141;51.120;17.114;2023-04-23T10:41:29;18;11;8
42510;PMS7003;28141;51.120;17.114;2023-04-23T10:45:17;20;11;8
42510;PMS7003;28141;51.120;17.114;2023-04-23T10:52:03;19;11;8
42510;PMS7003;28141;51.120;17.114;2023-04-23T10:55:48;19;10;8
42510;PMS7003;28141;51.120;17.114;2023-04-23T10:59:04;18;11;8
42510;PMS7003;28141;51.120;17.114;2023-04-23T11:02:26;21;13;9
42510;PMS7003;28141;51.120;17.114;2023-04-23T11:06:18;17;10;8
42510;PMS7003;28141;51.120;17.114;2023-04-23T11:09:40;18;10;8
42510;PMS7003;28141;51.120;17.114;2023-04-23T11:12:56;18;11;7
42510;PMS7003;28141;51.120;17.114;2023-04-23T11:16:37;18;10;8
42510;PMS7003;28141;51.120;17.114;2023-04-23T11:27:11;19;11;7
42510;PMS7003;28141;51.120;17.114;2023-04-23T11:30:27;20;12;8
42510;PMS7003;28141;51.120;17.114;2023-04-23T11:33:42;21;11;7
42510;PMS7003;28141;51.120;17.114;2023-04-23T11:36:57;19;10;8
42510;PMS7003;28141;51.120;17.114;2023-04-23T11:40:39;17;11;7
42510;PMS7003;28141;51.120;17.114;2023-04-23T11:43:55;19;11;8
42510;PMS7003;28141;51.120;17.114;2023-04-23T11:47:11;18;9;6
42510;PMS7003;28141;51.120;17.114;2023-04-23T11:50:27;18;10;7
42510;PMS7003;28141;51.120;17.114;2023-04-23T11:54:11;19;10;7
42510;PMS7003;28141;51.120;17.114;2023-04-23T11:57:26;17;10;7
42510;PMS7003;28141;51.120;17.114;2023-04-23T12:00:40;15;8;6
42510;PMS7003;28141;51.120;17.114;2023-04-23T12:03:54;17;11;7
42510;PMS7003;28141;51.120;17.114;2023-04-23T12:07:35;18;11;7
42510;PMS7003;28141;51.120;17.114;2023-04-23T12:10:53;18;11;6
42510;PMS7003;28141;51.120;17.114;2023-04-23T12:14:11;18;9;7
42510;PMS7003;28141;51.120;17.114;2023-04-23T12:17:27;14;7;5
42510;PMS7003;28141;51.120;17.114;2023-04-23T12:21:07;17;9;6
42510;PMS7003;28141;51.120;17.114;2023-04-23T12:24:22;17;9;6
42510;PMS7003;28141;51.120;17.114;2023-04-23T12:27:39;17;10;6
42510;PMS7003;28141;51.120;17.114;2023-04-23T12:31:03;15;9;6
42510;PMS7003;28141;51.120;17.114;2023-04-23T12:34:50;16;9;6
42510;PMS7003;28141;51.120;17.114;2023-04-23T12:38:06;15;8;6
42510;PMS7003;28141;51.120;17.114;2023-04-23T12:41:20;16;9;6
42510;PMS7003;28141;51.120;17.114;2023-04-23T12:45:06;16;9;6
42510;PMS7003;28141;51.120;17.114;2023-04-23T12:48:22;15;8;6
42510;PMS7003;28141;51.120;17.114;2023-04-23T12:51:35;15;8;6
42510;PMS7003;28141;51.120;17.114;2023-04-23T12:54:50;18;10;5
42510;PMS7003;28141;51.120;17.114;2023-04-23T12:58:36;15;8;5
42510;PMS7003;28141;51.120;17.114;2023-04-23T13:01:50;15;8;6
42510;PMS7003;28141;51.120;17.114;2023-04-23T13:05:05;15;8;6
42510;PMS7003;28141;51.120;17.114;2023-04-23T13:08:19;15;9;5
42510;PMS7003;28141;51.120;17.114;2023-04-23T13:11:59;14;7;5
42510;PMS7003;28141;51.120;17.114;2023-04-23T13:15:14;14;6;5
42510;PMS7003;28141;51.120;17.114;2023-04-23T13:18:28;17;10;6
42510;PMS7003;28141;51.120;17.114;2023-04-23T13:21:43;15;8;6
42510;PMS7003;28141;51.120;17.114;2023-04-23T13:25:23;14;7;5
42510;PMS7003;28141;51.120;17.114;2023-04-23T13:28:37;15;7;6
42510;PMS7003;28141;51.120;17.114;2023-04-23T13:31:52;15;7;5
42510;PMS7003;28141;51.120;17.114;2023-04-23T13:35:07;14;7;4
42510;PMS7003;28141;51.120;17.114;2023-04-23T13:38:22;15;8;5
42510;PMS7003;28141;51.120;17.114;2023-04-23T13:42:03;15;8;6
42510;PMS7003;28141;51.120;17.114;2023-04-23T13:45:17;15;9;6
42510;PMS7003;28141;51.120;17.114;2023-04-23T13:48:31;14;7;5
42510;PMS7003;28141;51.120;17.114;2023-04-23T13:51:45;14;7;5
42510;PMS7003;28141;51.120;17.114;2023-04-23T13:55:25;14;8;5
42510;PMS7003;28141;51.120;17.114;2023-04-23T13:58:39;14;8;5
42510;PMS7003;28141;51.120;17.114;2023-04-23T14:01:58;14;7;5
42510;PMS7003;28141;51.120;17.114;2023-04-23T14:05:11;16;7;5
42510;PMS7003;28141;51.120;17.114;2023-04-23T14:08:52;14;7;5
42510;PMS7003;28141;51.120;17.114;2023-04-23T14:12:05;15;8;6
42510;PMS7003;28141;51.120;17.114;2023-04-23T14:15:20;15;8;5
42510;PMS7003;28141;51.120;17.114;2023-04-23T14:18:34;14;8;6
42510;PMS7003;28141;51.120;17.114;2023-04-23T14:22:14;15;7;5
42510;PMS7003;28141;51.120;17.114;2023-04-23T14:28:53;14;7;5
42510;PMS7003;28141;51.120;17.114;2023-04-23T14:32:36;14;7;5
42510;PMS7003;28141;51.120;17.114;2023-04-23T14:35:50;14;7;5
42510;PMS7003;28141;51.120;17.114;2023-04-23T14:39:05;14;6;5
42510;PMS7003;28141;51.120;17.114;2023-04-23T14:42:19;14;6;4
42510;PMS7003;28141;51.120;17.114;2023-04-23T14:45:59;12;6;4
42510;PMS7003;28141;51.120;17.114;2023-04-23T14:49:14;13;6;4
42510;PMS7003;28141;51.120;17.114;2023-04-23T14:52:27;16;9;5
42510;PMS7003;28141;51.120;17.114;2023-04-23T14:55:43;14;7;4
42510;PMS7003;28141;51.120;17.114;2023-04-23T14:59:23;13;6;4
42510;PMS7003;28141;51.120;17.114;2023-04-23T15:02:38;15;7;5
42510;PMS7003;28141;51.120;17.114;2023-04-23T15:05:53;12;6;4
42510;PMS7003;28141;51.120;17.114;2023-04-23T15:09:06;12;6;5
42510;PMS7003;28141;51.120;17.114;2023-04-23T15:12:54;14;7;5
42510;PMS7003;28141;51.120;17.114;2023-04-23T15:16:34;14;7;4
42510;PMS7003;28141;51.120;17.114;2023-04-23T15:20:12;14;7;4
42510;PMS7003;28141;51.120;17.114;2023-04-23T15:23:26;12;5;3
42510;PMS7003;28141;51.120;17.114;2023-04-23T15:26:39;12;5;4
42510;PMS7003;28141;51.120;17.114;2023-04-23T15:29:55;13;6;4
42510;PMS7003;28141;51.120;17.114;2023-04-23T15:33:36;12;5;4
42510;PMS7003;28141;51.120;17.114;2023-04-23T15:36:50;14;8;5
42510;PMS7003;28141;51.120;17.114;2023-04-23T15:40:04;13;6;4
42510;PMS7003;28141;51.120;17.114;2023-04-23T15:43:19;12;6;5
42510;PMS7003;28141;51.120;17.114;2023-04-23T15:46:59;12;5;3
42510;PMS7003;28141;51.120;17.114;2023-04-23T15:50:15;14;6;4
42510;PMS7003;28141;51.120;17.114;2023-04-23T15:53:34;12;4;4
42510;PMS7003;28141;51.120;17.114;2023-04-23T15:56:48;12;5;4
42510;PMS7003;28141;51.120;17.114;2023-04-23T16:00:29;14;7;5
42510;PMS7003;28141;51.120;17.114;2023-04-23T16:03:45;12;5;3
42510;PMS7003;28141;51.120;17.114;2023-04-23T16:06:59;13;4;4
42510;PMS7003;28141;51.120;17.114;2023-04-23T16:10:13;14;6;4
42510;PMS7003;28141;51.120;17.114;2023-04-23T16:13:54;12;5;4
42510;PMS7003;28141;51.120;17.114;2023-04-23T16:17:09;13;6;3
42510;PMS7003;28141;51.120;17.114;2023-04-23T16:20:23;13;5;3
42510;PMS7003;28141;51.120;17.114;2023-04-23T16:23:37;13;7;4
42510;PMS7003;28141;51.120;17.114;2023-04-23T16:27:19;14;8;6
42510;PMS7003;28141;51.120;17.114;2023-04-23T16:30:34;13;6;4
42510;PMS7003;28141;51.120;17.114;2023-04-23T16:33:48;13;6;4
42510;PMS7003;28141;51.120;17.114;2023-04-23T16:37:03;14;5;4
42510;PMS7003;28141;51.120;17.114;2023-04-23T16:40:44;13;6;5
42510;PMS7003;28141;51.120;17.114;2023-04-23T16:43:59;12;5;4
42510;PMS7003;28141;51.120;17.114;2023-04-23T16:47:13;13;7;4
42510;PMS7003;28141;51.120;17.114;2023-04-23T16:50:27;12;6;3
42510;PMS7003;28141;51.120;17.114;2023-04-23T16:54:07;12;5;4
42510;PMS7003;28141;51.120;17.114;2023-04-23T16:57:21;14;6;4
42510;PMS7003;28141;51.120;17.114;2023-04-23T17:00:35;11;5;4
42510;PMS7003;28141;51.120;17.114;2023-04-23T17:03:49;11;5;3
42510;PMS7003;28141;51.120;17.114;2023-04-23T17:07:28;11;4;3
42510;PMS7003;28141;51.120;17.114;2023-04-23T17:10:42;12;6;4
42510;PMS7003;28141;51.120;17.114;2023-04-23T17:13:57;12;5;3
42510;PMS7003;28141;51.120;17.114;2023-04-23T17:17:11;12;5;3
42510;PMS7003;28141;51.120;17.114;2023-04-23T17:20:51;13;5;3
42510;PMS7003;28141;51.120;17.114;2023-04-23T17:24:05;13;5;4
42510;PMS7003;28141;51.120;17.114;2023-04-23T17:27:19;12;5;4
42510;PMS7003;28141;51.120;17.114;2023-04-23T17:30:33;10;4;3
42510;PMS7003;28141;51.120;17.114;2023-04-23T17:34:13;12;5;3
42510;PMS7003;28141;51.120;17.114;2023-04-23T17:37:27;12;5;3
42510;PMS7003;28141;51.120;17.114;2023-04-23T17:40:41;11;5;3
42510;PMS7003;28141;51.120;17.114;2023-04-23T17:43:55;12;6;4
42510;PMS7003;28141;51.120;17.114;2023-04-23T17:47:09;12;6;4
42510;PMS7003;28141;51.120;17.114;2023-04-23T17:50:52;12;5;4
42510;PMS7003;28141;51.120;17.114;2023-04-23T17:54:06;12;6;4
42510;PMS7003;28141;51.120;17.114;2023-04-23T17:57:20;12;4;3
42510;PMS7003;28141;51.120;17.114;2023-04-23T18:00:34;11;5;3
42510;PMS7003;28141;51.120;17.114;2023-04-23T18:04:16;11;4;3
42510;PMS7003;28141;51.120;17.114;2023-04-23T18:07:30;11;4;3
42510;PMS7003;28141;51.120;17.114;2023-04-23T18:10:44;12;5;4
42510;PMS7003;28141;51.120;17.114;2023-04-23T18:13:58;10;3;3
42510;PMS7003;28141;51.120;17.114;2023-04-23T18:17:38;11;4;3
42510;PMS7003;28141;51.120;17.114;2023-04-23T18:20:53;11;5;4
42510;PMS7003;28141;51.120;17.114;2023-04-23T18:24:06;12;5;4
42510;PMS7003;28141;51.120;17.114;2023-04-23T18:27:21;11;4;3
42510;PMS7003;28141;51.120;17.114;2023-04-23T18:31:03;11;5;3
42510;PMS7003;28141;51.120;17.114;2023-04-23T18:34:17;11;5;3
42510;PMS7003;28141;51.120;17.114;2023-04-23T18:37:36;12;5;4
42510;PMS7003;28141;51.120;17.114;2023-04-23T18:41:28;11;5;3
42510;PMS7003;28141;51.120;17.114;2023-04-23T18:44:43;11;4;3
42510;PMS7003;28141;51.120;17.114;2023-04-23T18:48:01;12;4;3
42510;PMS7003;28141;51.120;17.114;2023-04-23T18:51:24;12;5;3
42510;PMS7003;28141;51.120;17.114;2023-04-23T18:55:11;13;5;4
42510;PMS7003;28141;51.120;17.114;2023-04-23T18:58:25;13;6;4
42510;PMS7003;28141;51.120;17.114;2023-04-23T19:01:39;12;5;3
42510;PMS7003;28141;51.120;17.114;2023-04-23T19:04:56;12;5;3
42510;PMS7003;28141;51.120;17.114;2023-04-23T19:08:36;12;5;4
42510;PMS7003;28141;51.120;17.114;2023-04-23T19:11:50;11;4;3
42510;PMS7003;28141;51.120;17.114;2023-04-23T19:15:05;12;6;4
42510;PMS7003;28141;51.120;17.114;2023-04-23T19:18:20;11;4;3
42510;PMS7003;28141;51.120;17.114;2023-04-23T19:22:01;13;7;4
42510;PMS7003;28141;51.120;17.114;2023-04-23T19:25:16;11;5;3
42510;PMS7003;28141;51.120;17.114;2023-04-23T19:28:29;11;5;3
42510;PMS7003;28141;51.120;17.114;2023-04-23T19:31:43;12;5;3
42510;PMS7003;28141;51.120;17.114;2023-04-23T19:35:23;12;5;3
42510;PMS7003;28141;51.120;17.114;2023-04-23T19:38:38;11;5;4
42510;PMS7003;28141;51.120;17.114;2023-04-23T19:41:52;13;4;3
42510;PMS7003;28141;51.120;17.114;2023-04-23T19:45:07;11;5;4
42510;PMS7003;28141;51.120;17.114;2023-04-23T19:48:48;11;4;3
42510;PMS7003;28141;51.120;17.114;2023-04-23T19:52:01;13;5;3
42510;PMS7003;28141;51.120;17.114;2023-04-23T19:55:16;11;4;3
42510;PMS7003;28141;51.120;17.114;2023-04-23T19:58:38;14;5;3
42510;PMS7003;28141;51.120;17.114;2023-04-23T20:02:19;11;5;3
42510;PMS7003;28141;51.120;17.114;2023-04-23T20:05:33;12;5;3
42510;PMS7003;28141;51.120;17.114;2023-04-23T20:08:47;12;5;3
42510;PMS7003;28141;51.120;17.114;2023-04-23T20:12:41;12;6;3
42510;PMS7003;28141;51.120;17.114;2023-04-23T20:15:56;13;6;4
42510;PMS7003;28141;51.120;17.114;2023-04-23T20:19:10;11;5;3
42510;PMS7003;28141;51.120;17.114;2023-04-23T20:22:29;13;6;4
42510;PMS7003;28141;51.120;17.114;2023-04-23T20:26:09;10;3;3
42510;PMS7003;28141;51.120;17.114;2023-04-23T20:29:23;12;5;3
42510;PMS7003;28141;51.120;17.114;2023-04-23T20:32:37;11;5;3
42510;PMS7003;28141;51.120;17.114;2023-04-23T20:35:51;10;4;3
42510;PMS7003;28141;51.120;17.114;2023-04-23T20:39:31;11;4;2
42510;PMS7003;28141;51.120;17.114;2023-04-23T20:42:46;12;5;3
42510;PMS7003;28141;51.120;17.114;2023-04-23T20:46:04;12;4;3
42510;PMS7003;28141;51.120;17.114;2023-04-23T20:49:22;14;5;3
42510;PMS7003;28141;51.120;17.114;2023-04-23T20:53:05;10;4;3
42510;PMS7003;28141;51.120;17.114;2023-04-23T20:56:19;10;4;3
42510;PMS7003;28141;51.120;17.114;2023-04-23T20:59:34;12;5;3
42510;PMS7003;28141;51.120;17.114;2023-04-23T21:02:48;12;4;3
42510;PMS7003;28141;51.120;17.114;2023-04-23T21:06:28;12;4;4
42510;PMS7003;28141;51.120;17.114;2023-04-23T21:09:43;11;4;3
42510;PMS7003;28141;51.120;17.114;2023-04-23T21:12:57;11;5;3
42510;PMS7003;28141;51.120;17.114;2023-04-23T21:16:12;12;5;3
42510;PMS7003;28141;51.120;17.114;2023-04-23T21:19:53;12;6;4
42510;PMS7003;28141;51.120;17.114;2023-04-23T21:23:07;11;4;3
42510;PMS7003;28141;51.120;17.114;2023-04-23T21:26:23;10;3;3
42510;PMS7003;28141;51.120;17.114;2023-04-23T21:29:37;11;4;3
42510;PMS7003;28141;51.120;17.114;2023-04-23T21:33:18;13;5;4
42510;PMS7003;28141;51.120;17.114;2023-04-23T21:36:33;11;4;3
42510;PMS7003;28141;51.120;17.114;2023-04-23T21:39:47;15;8;5
42510;PMS7003;28141;51.120;17.114;2023-04-23T21:43:01;13;5;3
42510;PMS7003;28141;51.120;17.114;2023-04-23T21:46:42;11;5;3
42510;PMS7003;28141;51.120;17.114;2023-04-23T21:49:58;14;6;4